createdAt,value
2023-03-17T00:00:36.542Z,2.89
2023-03-17T08:20:53.308Z,0.78
2023-03-17T10:24:34.685Z,0.84
2023-03-17T10:28:34.186Z,0.41
2023-03-17T10:32:34.292Z,0.62
2023-03-17T10:36:34.193Z,0.70
2023-03-17T10:40:34.186Z,0.61
2023-03-17T10:44:34.196Z,0.73
2023-03-17T10:48:34.224Z,0.63
2023-03-17T10:52:34.191Z,0.63
2023-03-17T10:56:34.161Z,0.75
2023-03-17T11:00:34.221Z,0.66
2023-03-17T11:04:34.237Z,0.67
2023-03-17T11:08:34.200Z,0.70
2023-03-17T11:12:34.160Z,0.77
2023-03-17T11:16:34.264Z,0.82
2023-03-17T11:20:34.177Z,0.86
2023-03-17T11:24:34.222Z,0.81
2023-03-17T11:28:34.212Z,0.81
2023-03-17T11:32:34.287Z,0.79
2023-03-17T11:36:34.254Z,0.81
2023-03-17T11:40:34.212Z,0.75
2023-03-17T11:44:34.215Z,0.77
2023-03-17T11:48:34.212Z,0.81
2023-03-17T11:52:34.252Z,0.74
2023-03-17T11:56:34.222Z,0.80
2023-03-17T12:00:34.725Z,0.78
2023-03-17T12:04:33.795Z,0.70
2023-03-17T12:08:33.738Z,0.72
2023-03-17T12:12:33.579Z,0.66
2023-03-17T12:16:33.727Z,0.69
2023-03-17T12:20:34.081Z,0.72
2023-03-17T12:24:33.438Z,0.65
2023-03-17T12:28:33.723Z,0.67
2023-03-17T12:32:33.785Z,0.64
2023-03-17T12:36:33.224Z,0.62
2023-03-17T12:40:33.351Z,0.62
2023-03-17T12:44:33.065Z,0.59
2023-03-17T12:48:33.008Z,0.53
2023-03-17T12:52:32.954Z,0.56
2023-03-17T12:56:33.249Z,0.52
2023-03-17T13:00:32.824Z,0.53
2023-03-17T13:04:33.235Z,0.55
2023-03-17T13:08:32.754Z,0.55
2023-03-17T13:12:32.760Z,0.57
2023-03-17T13:16:32.817Z,0.53
2023-03-17T13:20:32.444Z,0.65
2023-03-17T13:24:32.371Z,0.67
2023-03-17T13:28:32.312Z,0.56
2023-03-17T13:32:32.361Z,1.02
2023-03-17T13:36:32.105Z,0.87
2023-03-17T13:40:32.793Z,0.98
2023-03-17T13:44:31.930Z,0.96
2023-03-17T13:48:32.261Z,0.77
2023-03-17T13:52:31.750Z,0.83
2023-03-17T13:56:32.751Z,0.94
2023-03-17T14:00:31.598Z,0.85
2023-03-17T14:04:32.048Z,0.95
2023-03-17T14:08:31.287Z,0.79
2023-03-17T14:12:31.263Z,0.90
2023-03-17T14:16:31.865Z,0.85
2023-03-17T14:20:31.285Z,0.70
2023-03-17T14:24:31.293Z,0.72
2023-03-17T14:28:31.277Z,0.64
2023-03-17T14:32:30.833Z,0.75
2023-03-17T14:36:30.998Z,0.67
2023-03-17T14:40:30.601Z,0.61
2023-03-17T14:44:30.777Z,0.56
2023-03-17T14:48:30.522Z,0.63
2023-03-17T14:52:30.499Z,0.61
2023-03-17T14:56:30.457Z,0.72
2023-03-17T15:00:30.485Z,0.72
2023-03-17T15:04:30.503Z,0.78
2023-03-17T15:08:30.811Z,0.70
2023-03-17T15:12:30.473Z,0.80
2023-03-17T15:16:30.589Z,0.77
2023-03-17T15:20:30.989Z,0.64
2023-03-17T15:24:30.791Z,0.66
2023-03-17T15:28:30.788Z,0.74
2023-03-17T15:32:30.870Z,0.60
2023-03-17T15:36:33.045Z,0.66
2023-03-17T15:40:30.784Z,0.68
2023-03-17T15:44:30.794Z,0.71
2023-03-17T15:48:30.242Z,0.66
2023-03-17T15:52:30.325Z,0.61
2023-03-17T15:56:29.911Z,0.66
2023-03-17T16:00:30.559Z,0.66
2023-03-17T16:04:29.988Z,0.66
2023-03-17T16:08:29.797Z,0.59
2023-03-17T16:12:29.811Z,0.91
2023-03-17T16:16:29.467Z,1.02
2023-03-17T16:20:29.722Z,1.12
2023-03-17T16:24:29.323Z,1.25
2023-03-17T16:28:28.918Z,1.43
2023-03-17T16:32:28.859Z,1.52
2023-03-17T16:36:28.923Z,1.67
2023-03-17T16:40:28.874Z,1.77
2023-03-17T16:44:28.385Z,1.92
2023-03-17T16:48:28.147Z,2.08
2023-03-17T16:52:27.986Z,2.18
2023-03-17T16:56:27.954Z,2.28
2023-03-17T17:00:27.689Z,2.40
2023-03-17T17:04:27.661Z,2.51
2023-03-17T17:08:27.726Z,2.61
2023-03-17T17:12:27.648Z,2.70
2023-03-17T17:16:27.678Z,2.78
2023-03-17T17:20:27.520Z,2.88
2023-03-17T17:24:27.493Z,2.93
2023-03-17T17:28:27.489Z,2.96
2023-03-17T17:32:27.492Z,3.05
2023-03-17T17:36:27.291Z,3.12
2023-03-17T17:40:27.161Z,3.15
2023-03-17T17:44:27.076Z,3.18
2023-03-17T17:48:26.935Z,3.24
2023-03-17T17:52:26.835Z,3.23
2023-03-17T17:56:26.756Z,3.24
2023-03-17T18:00:26.672Z,3.32
2023-03-17T18:04:26.650Z,3.33
2023-03-17T18:08:26.467Z,3.31
2023-03-17T18:12:26.361Z,3.30
2023-03-17T18:16:26.355Z,3.37
2023-03-17T18:20:26.209Z,3.35
2023-03-17T18:24:26.145Z,3.34
2023-03-17T18:28:26.088Z,3.33
2023-03-17T18:32:26.059Z,3.32
2023-03-17T18:36:25.995Z,3.30
2023-03-17T18:40:26.014Z,3.32
2023-03-17T18:44:25.942Z,3.31
2023-03-17T18:48:25.945Z,3.33
2023-03-17T18:52:25.908Z,3.29
2023-03-17T18:56:25.888Z,3.28
2023-03-17T19:00:25.885Z,3.31
2023-03-17T19:04:25.909Z,3.28
2023-03-17T19:08:25.921Z,3.25
2023-03-17T19:12:25.932Z,3.26
2023-03-17T19:16:25.979Z,3.23
2023-03-17T19:20:25.979Z,3.20
2023-03-17T19:24:25.999Z,3.20
2023-03-17T19:28:26.044Z,3.15
2023-03-17T19:32:26.057Z,3.20
2023-03-17T19:36:26.144Z,3.18
2023-03-17T19:40:26.192Z,3.14
2023-03-17T19:44:26.274Z,3.14
2023-03-17T19:48:26.347Z,3.14
2023-03-17T19:52:26.458Z,3.05
2023-03-17T19:56:26.509Z,3.04
2023-03-17T20:00:26.608Z,3.07
2023-03-17T20:04:26.827Z,3.01
2023-03-17T20:08:26.839Z,3.01
2023-03-17T20:12:26.934Z,3.04
2023-03-17T20:16:27.072Z,3.01
2023-03-17T20:20:27.193Z,3.03
2023-03-17T20:24:27.385Z,3.02
2023-03-17T20:28:29.994Z,3.00
2023-03-17T20:32:27.493Z,2.97
2023-03-17T20:36:27.361Z,2.88
2023-03-17T20:40:27.307Z,2.91
2023-03-17T20:44:27.216Z,2.91
2023-03-17T20:48:27.132Z,2.89
2023-03-17T20:52:29.484Z,2.88
2023-03-17T20:56:26.985Z,2.88
2023-03-17T21:00:26.888Z,2.91
2023-03-17T21:04:26.816Z,2.84
2023-03-17T21:08:26.713Z,2.79
2023-03-17T21:12:26.656Z,2.80
2023-03-17T21:16:26.687Z,2.77
2023-03-17T21:20:26.522Z,2.78
2023-03-17T21:24:26.433Z,2.79
2023-03-17T21:28:26.385Z,2.76
2023-03-17T21:32:26.262Z,2.67
2023-03-17T21:36:26.177Z,2.71
2023-03-17T21:40:26.154Z,2.63
2023-03-17T21:44:26.036Z,2.64
2023-03-17T21:48:26.019Z,2.64
2023-03-17T21:52:26.166Z,2.65
2023-03-17T21:56:26.133Z,2.60
2023-03-17T22:00:30.942Z,2.58
2023-03-17T22:04:26.044Z,2.59
2023-03-17T22:08:25.962Z,2.56
2023-03-17T22:12:25.811Z,2.52
2023-03-17T22:16:25.909Z,2.53
2023-03-17T22:20:25.646Z,2.47
2023-03-17T22:24:25.603Z,2.50
2023-03-17T22:28:25.509Z,2.45
2023-03-17T22:32:25.447Z,2.43
2023-03-17T22:36:25.336Z,2.39
2023-03-17T22:40:25.241Z,2.35
2023-03-17T22:44:25.144Z,2.37
2023-03-17T22:48:25.076Z,2.28
2023-03-17T22:52:25.028Z,2.31
2023-03-17T22:56:24.887Z,2.28
2023-03-17T23:00:24.833Z,2.37
2023-03-17T23:04:24.808Z,2.28
2023-03-17T23:08:24.718Z,2.31
2023-03-17T23:12:24.642Z,2.31
2023-03-17T23:16:24.625Z,2.23
2023-03-17T23:20:24.646Z,2.19
2023-03-17T23:24:24.493Z,2.24
2023-03-17T23:28:24.437Z,2.21
2023-03-17T23:32:24.365Z,2.21
2023-03-17T23:36:24.332Z,2.22
2023-03-17T23:40:24.236Z,2.13
2023-03-17T23:44:24.174Z,2.21
2023-03-17T23:48:24.137Z,2.17
2023-03-17T23:52:24.112Z,2.22
2023-03-17T23:56:24.008Z,2.13
